createdAt,value
2023-04-13T00:00:30.855Z,95616.86
2023-04-13T00:03:17.890Z,95616.10
2023-04-13T00:05:47.001Z,95610.98
2023-04-13T00:08:17.449Z,95611.58
2023-04-13T00:10:46.285Z,95612.33
2023-04-13T00:13:15.136Z,95609.59
2023-04-13T00:15:43.555Z,95606.61
2023-04-13T00:18:12.258Z,95609.50
2023-04-13T00:20:42.081Z,95608.20
2023-04-13T00:23:10.840Z,95608.50
2023-04-13T00:25:38.840Z,95608.80
2023-04-13T00:28:07.080Z,95612.08
2023-04-13T00:30:35.176Z,95611.77
2023-04-13T00:33:06.486Z,95609.55
2023-04-13T00:35:34.875Z,95610.45
2023-04-13T00:38:03.346Z,95612.36
2023-04-13T00:40:31.854Z,95613.11
2023-04-13T00:43:01.157Z,95616.39
2023-04-13T00:45:29.258Z,95613.70
2023-04-13T00:47:58.469Z,95617.52
2023-04-13T00:50:26.701Z,95614.82
2023-04-13T00:52:54.972Z,95613.07
2023-04-13T00:55:22.936Z,95607.71
2023-04-13T00:57:52.949Z,95603.45
2023-04-13T01:00:22.126Z,95599.46
2023-04-13T01:02:52.742Z,95598.08
2023-04-13T01:05:21.672Z,95598.21
2023-04-13T01:07:55.861Z,95598.28
2023-04-13T01:10:32.778Z,95595.15
2023-04-13T01:13:04.948Z,95592.85
2023-04-13T01:15:38.096Z,95593.15
2023-04-13T01:18:08.990Z,95592.23
2023-04-13T01:20:38.691Z,95594.75
2023-04-13T01:23:09.820Z,95596.20
2023-04-13T01:25:47.419Z,95600.52
2023-04-13T01:28:16.097Z,95600.06
2023-04-13T01:30:44.886Z,95596.39
2023-04-13T01:33:14.238Z,95597.54
2023-04-13T01:35:43.484Z,95600.27
2023-04-13T01:38:15.413Z,95600.80
2023-04-13T01:40:44.560Z,95602.08
2023-04-13T01:43:13.036Z,95606.20
2023-04-13T01:46:10.022Z,95607.23
2023-04-13T01:48:48.392Z,95606.52
2023-04-13T01:51:42.874Z,95609.65
2023-04-13T01:54:14.849Z,95612.01
2023-04-13T01:56:45.564Z,95615.49
2023-04-13T01:59:13.757Z,95620.68
2023-04-13T02:01:43.913Z,95621.59
2023-04-13T02:04:14.079Z,95619.44
2023-04-13T02:06:44.012Z,95617.67
2023-04-13T02:09:12.910Z,95614.38
2023-04-13T02:11:41.291Z,95618.13
2023-04-13T02:14:09.772Z,95618.80
2023-04-13T02:16:39.173Z,95617.95
2023-04-13T02:19:07.851Z,95616.41
2023-04-13T02:21:36.460Z,95615.05
2023-04-13T02:24:04.614Z,95614.42
2023-04-13T02:26:33.070Z,95611.74
2023-04-13T02:29:01.375Z,95611.73
2023-04-13T02:31:32.076Z,95617.89
2023-04-13T02:34:01.119Z,95620.85
2023-04-13T02:36:30.602Z,95620.00
2023-04-13T02:39:01.955Z,95618.70
2023-04-13T02:41:31.981Z,95622.65
2023-04-13T02:44:00.350Z,95621.42
2023-04-13T02:46:33.015Z,95626.68
2023-04-13T02:49:09.212Z,95637.42
2023-04-13T02:51:41.248Z,95639.23
2023-04-13T02:54:11.551Z,95640.06
2023-04-13T02:56:41.598Z,95642.34
2023-04-13T02:59:10.052Z,95639.36
2023-04-13T03:01:38.084Z,95642.09
2023-04-13T03:04:07.134Z,95644.67
2023-04-13T03:06:35.413Z,95642.07
2023-04-13T03:09:04.294Z,95641.45
2023-04-13T03:11:42.500Z,95644.56
2023-04-13T03:14:23.603Z,95646.39
2023-04-13T03:17:04.980Z,95644.31
2023-04-13T03:19:38.161Z,95646.90
2023-04-13T03:22:06.442Z,95644.51
2023-04-13T03:24:35.879Z,95642.06
2023-04-13T03:27:06.489Z,95644.48
2023-04-13T03:29:39.271Z,95645.46
2023-04-13T03:32:08.059Z,95650.48
2023-04-13T03:34:37.880Z,95655.73
2023-04-13T03:37:11.158Z,95652.82
2023-04-13T03:39:39.643Z,95659.29
2023-04-13T03:42:08.749Z,95659.42
2023-04-13T03:44:37.015Z,95659.05
2023-04-13T03:47:06.416Z,95655.68
2023-04-13T03:49:36.237Z,95649.05
2023-04-13T03:52:05.053Z,95654.76
2023-04-13T03:54:37.159Z,95658.47
2023-04-13T03:57:05.474Z,95664.78
2023-04-13T03:59:34.266Z,95670.25
2023-04-13T04:02:03.239Z,95672.53
2023-04-13T04:04:32.182Z,95673.82
2023-04-13T04:07:00.317Z,95668.79
2023-04-13T04:09:28.283Z,95666.79
2023-04-13T04:11:57.793Z,95661.68
2023-04-13T04:14:36.176Z,95662.44
2023-04-13T04:17:14.131Z,95665.17
2023-04-13T04:19:42.272Z,95667.08
2023-04-13T04:22:10.453Z,95669.13
2023-04-13T04:24:42.537Z,95671.31
2023-04-13T04:27:11.615Z,95670.17
2023-04-13T04:29:39.554Z,95673.60
2023-04-13T04:32:20.083Z,95673.50
2023-04-13T04:34:52.763Z,95670.76
2023-04-13T04:37:23.767Z,95667.95
2023-04-13T04:40:00.552Z,95674.45
2023-04-13T04:42:28.814Z,95679.48
2023-04-13T04:44:57.725Z,95679.02
2023-04-13T04:47:30.341Z,95682.02
2023-04-13T04:50:11.288Z,95680.73
2023-04-13T04:52:40.568Z,95679.07
2023-04-13T04:55:09.370Z,95680.94
2023-04-13T04:57:38.877Z,95682.67
2023-04-13T05:00:15.564Z,95685.16
2023-04-13T05:02:48.552Z,95687.80
2023-04-13T05:05:16.992Z,95686.55
2023-04-13T05:07:46.394Z,95691.23
2023-04-13T05:10:15.108Z,95698.02
2023-04-13T05:12:47.671Z,95702.00
2023-04-13T05:15:15.716Z,95697.27
2023-04-13T05:17:46.843Z,95696.85
2023-04-13T05:20:15.157Z,95693.17
2023-04-13T05:22:51.935Z,95686.67
2023-04-13T05:25:20.112Z,95683.53
2023-04-13T05:27:48.590Z,95688.39
2023-04-13T05:30:17.378Z,95688.53
2023-04-13T05:32:45.394Z,95683.19
2023-04-13T05:35:13.498Z,95682.39
2023-04-13T05:37:44.746Z,95682.83
2023-04-13T05:40:18.660Z,95684.73
2023-04-13T05:42:46.655Z,95683.43
2023-04-13T05:45:17.298Z,95684.41
2023-04-13T05:48:02.884Z,95687.06
2023-04-13T05:50:30.894Z,95683.83
2023-04-13T05:52:59.214Z,95682.36
2023-04-13T05:55:29.970Z,95681.88
2023-04-13T05:58:03.987Z,95684.67
2023-04-13T06:00:32.841Z,95687.85
2023-04-13T06:03:04.238Z,95688.82
2023-04-13T06:05:33.161Z,95693.99
2023-04-13T06:08:01.115Z,95692.82
2023-04-13T06:10:29.326Z,95690.88
2023-04-13T06:12:57.337Z,95689.23
2023-04-13T06:15:25.716Z,95688.11
2023-04-13T06:17:54.999Z,95687.09
2023-04-13T06:20:23.392Z,95687.89
2023-04-13T06:22:51.286Z,95692.30
2023-04-13T06:25:21.052Z,95691.81
2023-04-13T06:27:50.258Z,95691.31
2023-04-13T06:30:19.639Z,95691.20
2023-04-13T06:32:48.438Z,95689.48
2023-04-13T06:35:18.644Z,95692.79
2023-04-13T06:37:48.145Z,95690.60
2023-04-13T06:40:21.343Z,95686.36
2023-04-13T06:42:56.348Z,95685.55
2023-04-13T06:45:33.907Z,95688.77
2023-04-13T06:48:06.016Z,95688.50
2023-04-13T06:50:34.222Z,95685.40
2023-04-13T06:53:03.777Z,95683.05
2023-04-13T06:55:32.092Z,95686.89
2023-04-13T06:58:00.168Z,95692.05
2023-04-13T07:00:30.468Z,95692.22
2023-04-13T07:03:02.045Z,95690.34
2023-04-13T07:05:30.737Z,95687.52
2023-04-13T07:08:06.037Z,95686.58
2023-04-13T07:10:38.150Z,95687.98
2023-04-13T07:13:07.762Z,95688.75
2023-04-13T07:15:38.977Z,95691.91
2023-04-13T07:18:07.698Z,95694.29
2023-04-13T07:20:36.585Z,95698.60
2023-04-13T07:23:04.842Z,95704.80
2023-04-13T07:25:34.668Z,95701.23
2023-04-13T07:28:02.951Z,95697.95
2023-04-13T07:30:31.406Z,95699.71
2023-04-13T07:32:59.831Z,95703.23
2023-04-13T07:35:28.584Z,95703.55
2023-04-13T07:37:57.478Z,95697.29
2023-04-13T07:40:25.773Z,95698.36
2023-04-13T07:42:56.492Z,95692.64
2023-04-13T07:45:25.186Z,95689.27
2023-04-13T07:47:54.913Z,95686.21
2023-04-13T07:50:23.358Z,95685.30
2023-04-13T07:52:51.724Z,95681.02
2023-04-13T07:55:21.972Z,95680.02
2023-04-13T07:57:50.135Z,95680.64
2023-04-13T08:00:20.674Z,95677.35
2023-04-13T08:02:48.976Z,95678.88
2023-04-13T08:05:21.291Z,95678.73
2023-04-13T08:07:50.797Z,95677.13
2023-04-13T08:10:18.816Z,95674.83
2023-04-13T08:12:47.276Z,95678.45
2023-04-13T08:15:18.532Z,95677.76
2023-04-13T08:17:47.055Z,95677.38
2023-04-13T08:20:15.598Z,95677.08
2023-04-13T08:22:46.062Z,95675.02
2023-04-13T08:25:14.130Z,95668.36
2023-04-13T08:27:42.255Z,95666.39
2023-04-13T08:30:14.804Z,95666.61
2023-04-13T08:33:10.353Z,95666.92
2023-04-13T08:35:40.177Z,95659.95
2023-04-13T08:38:09.595Z,95661.33
2023-04-13T08:40:39.285Z,95660.64
2023-04-13T08:43:08.992Z,95662.10
2023-04-13T08:45:41.795Z,95662.49
2023-04-13T08:48:12.041Z,95666.39
2023-04-13T08:50:40.235Z,95664.33
2023-04-13T08:53:09.775Z,95663.02
2023-04-13T08:55:45.835Z,95664.34
2023-04-13T08:58:14.927Z,95666.03
2023-04-13T09:00:43.389Z,95661.89
2023-04-13T09:03:14.698Z,95659.98
2023-04-13T09:05:46.510Z,95655.10
2023-04-13T09:08:17.144Z,95650.05
2023-04-13T09:10:46.547Z,95645.98
2023-04-13T09:13:15.036Z,95646.52
2023-04-13T09:15:47.584Z,95649.05
2023-04-13T09:18:57.588Z,95647.52
2023-04-13T09:21:37.552Z,95648.36
2023-04-13T09:24:06.192Z,95642.39
2023-04-13T09:26:45.133Z,95637.95
2023-04-13T09:29:14.881Z,95631.21
2023-04-13T09:31:45.483Z,95627.30
2023-04-13T09:34:14.977Z,95624.48
2023-04-13T09:36:54.302Z,95625.63
2023-04-13T09:39:28.476Z,95626.63
2023-04-13T09:41:58.382Z,95624.10
2023-04-13T09:44:33.156Z,95627.16
2023-04-13T09:47:02.403Z,95627.33
2023-04-13T09:49:41.532Z,95622.10
2023-04-13T09:52:26.091Z,95617.13
2023-04-13T09:54:55.279Z,95616.82
2023-04-13T09:57:27.740Z,95618.43
2023-04-13T09:59:57.801Z,95620.49
2023-04-13T10:02:26.288Z,95616.05
2023-04-13T10:04:54.607Z,95617.13
2023-04-13T10:07:26.977Z,95617.52
2023-04-13T10:09:55.158Z,95618.20
2023-04-13T10:12:23.136Z,95615.75
2023-04-13T10:14:51.040Z,95612.83
2023-04-13T10:17:41.070Z,95614.59
2023-04-13T10:20:13.780Z,95615.29
2023-04-13T10:22:44.389Z,95616.83
2023-04-13T10:25:29.092Z,95616.36
2023-04-13T10:28:01.025Z,95612.38
2023-04-13T10:30:28.984Z,95614.21
2023-04-13T10:33:10.028Z,95608.46
2023-04-13T10:35:40.079Z,95613.45
2023-04-13T10:38:10.981Z,95617.81
2023-04-13T10:40:47.583Z,95615.59
2023-04-13T10:43:27.035Z,95613.15
2023-04-13T10:46:11.302Z,95606.48
2023-04-13T10:48:42.361Z,95603.03
2023-04-13T10:51:10.598Z,95601.50
2023-04-13T10:53:38.506Z,95600.35
2023-04-13T10:56:19.193Z,95601.72
2023-04-13T10:58:54.332Z,95601.34
2023-04-13T11:01:23.062Z,95597.83
2023-04-13T11:04:03.719Z,95595.83
2023-04-13T11:06:39.675Z,95596.60
2023-04-13T11:09:10.017Z,95598.20
2023-04-13T11:11:39.711Z,95602.27
2023-04-13T11:14:07.793Z,95600.89
2023-04-13T11:16:45.636Z,95591.91
2023-04-13T11:19:13.885Z,95592.98
2023-04-13T11:21:45.329Z,95595.89
2023-04-13T11:24:23.144Z,95597.35
2023-04-13T11:26:51.182Z,95591.77
2023-04-13T11:29:21.198Z,95592.84
2023-04-13T11:31:49.171Z,95590.92
2023-04-13T11:34:29.172Z,95586.10
2023-04-13T11:37:01.919Z,95585.25
2023-04-13T11:39:30.184Z,95584.33
2023-04-13T11:41:58.499Z,95582.48
2023-04-13T11:44:27.668Z,95581.03
2023-04-13T11:46:56.661Z,95580.65
2023-04-13T11:49:24.631Z,95577.66
2023-04-13T11:51:52.796Z,95577.42
2023-04-13T11:54:20.856Z,95575.89
2023-04-13T11:56:49.346Z,95574.59
2023-04-13T11:59:18.748Z,95580.34
2023-04-13T12:01:55.210Z,95580.58
2023-04-13T12:04:41.065Z,95575.05
2023-04-13T12:07:15.532Z,95567.02
2023-04-13T12:15:15.465Z,95561.41
2023-04-13T12:17:59.947Z,95556.36
2023-04-13T12:20:39.046Z,95553.05
2023-04-13T12:25:57.329Z,95545.48
2023-04-13T12:28:38.212Z,95543.17
2023-04-13T12:31:10.273Z,95541.18
2023-04-13T12:33:39.164Z,95539.95
2023-04-13T12:36:11.398Z,95544.16
2023-04-13T12:38:39.397Z,95545.16
2023-04-13T12:41:10.200Z,95547.86
2023-04-13T12:43:38.221Z,95546.02
2023-04-13T12:46:06.488Z,95541.41
2023-04-13T12:48:34.420Z,95539.20
2023-04-13T12:51:02.680Z,95535.59
2023-04-13T12:53:31.009Z,95532.00
2023-04-13T12:55:58.972Z,95528.94
2023-04-13T12:58:27.050Z,95529.16
2023-04-13T13:00:55.847Z,95531.24
2023-04-13T13:03:24.039Z,95525.57
2023-04-13T13:05:51.988Z,95527.10
2023-04-13T13:08:19.943Z,95530.25
2023-04-13T13:10:48.135Z,95528.19
2023-04-13T13:13:17.322Z,95526.50
2023-04-13T13:15:45.394Z,95520.69
2023-04-13T13:18:13.864Z,95522.67
2023-04-13T13:20:42.060Z,95525.73
2023-04-13T13:23:11.906Z,95524.73
2023-04-13T13:25:57.031Z,95527.65
2023-04-13T13:28:32.721Z,95528.66
2023-04-13T13:31:01.159Z,95524.21
2023-04-13T13:33:29.014Z,95519.78
2023-04-13T13:35:57.119Z,95515.71
2023-04-13T13:38:25.788Z,95517.09
2023-04-13T13:40:53.713Z,95519.08
2023-04-13T13:43:21.650Z,95523.91
2023-04-13T13:45:49.751Z,95527.04
2023-04-13T13:48:18.077Z,95528.41
2023-04-13T13:50:56.119Z,95526.34
2023-04-13T13:53:24.696Z,95522.05
2023-04-13T13:55:53.125Z,95518.45
2023-04-13T13:58:21.222Z,95511.70
2023-04-13T14:00:50.426Z,95512.09
2023-04-13T14:03:18.917Z,95514.33
2023-04-13T14:05:47.274Z,95512.70
2023-04-13T14:08:15.453Z,95516.69
2023-04-13T14:10:48.569Z,95517.45
2023-04-13T14:13:17.134Z,95515.77
2023-04-13T14:15:45.652Z,95513.09
2023-04-13T14:18:13.875Z,95513.93
2023-04-13T14:20:43.493Z,95511.63
2023-04-13T14:23:12.073Z,95512.09
2023-04-13T14:25:41.315Z,95508.72
2023-04-13T14:28:11.393Z,95507.11
2023-04-13T14:30:39.563Z,95508.27
2023-04-13T14:33:07.910Z,95512.70
2023-04-13T14:35:36.253Z,95520.27
2023-04-13T14:38:04.392Z,95519.90
2023-04-13T14:40:32.768Z,95513.86
2023-04-13T14:43:00.937Z,95513.48
2023-04-13T14:45:29.046Z,95509.34
2023-04-13T14:47:56.989Z,95508.04
2023-04-13T14:50:25.357Z,95505.73
2023-04-13T14:52:53.265Z,95504.20
2023-04-13T14:55:21.574Z,95504.20
2023-04-13T14:57:50.308Z,95507.96
2023-04-13T15:00:22.493Z,95506.50
2023-04-13T15:02:52.653Z,95506.04
2023-04-13T15:05:21.393Z,95507.95
2023-04-13T15:07:51.190Z,95505.42
2023-04-13T15:10:19.670Z,95504.73
2023-04-13T15:12:48.360Z,95505.13
2023-04-13T15:15:16.641Z,95503.81
2023-04-13T15:17:44.888Z,95504.27
2023-04-13T15:20:13.091Z,95504.66
2023-04-13T15:22:41.571Z,95505.11
2023-04-13T15:25:10.104Z,95502.13
2023-04-13T15:27:38.175Z,95501.20
2023-04-13T15:30:08.036Z,95502.19
2023-04-13T15:32:36.401Z,95500.13
2023-04-13T15:35:04.890Z,95502.73
2023-04-13T15:37:32.962Z,95503.03
2023-04-13T15:40:01.551Z,95498.44
2023-04-13T15:42:29.837Z,95498.90
2023-04-13T15:44:57.909Z,95501.19
2023-04-13T15:47:27.148Z,95503.04
2023-04-13T15:49:55.139Z,95498.74
2023-04-13T15:52:23.235Z,95497.29
2023-04-13T15:54:51.629Z,95495.30
2023-04-13T15:57:19.577Z,95497.97
2023-04-13T15:59:47.659Z,95501.11
2023-04-13T16:02:15.832Z,95499.73
2023-04-13T16:04:44.180Z,95500.88
2023-04-13T16:07:14.088Z,95500.42
2023-04-13T16:09:47.323Z,95503.95
2023-04-13T16:12:15.520Z,95506.09
2023-04-13T16:14:45.303Z,95504.10
2023-04-13T16:17:15.213Z,95504.55
2023-04-13T16:19:47.084Z,95501.20
2023-04-13T16:22:15.877Z,95504.27
2023-04-13T16:24:44.040Z,95505.71
2023-04-13T16:27:12.180Z,95502.50
2023-04-13T16:29:41.766Z,95502.10
2023-04-13T16:32:09.899Z,95497.89
2023-04-13T16:34:38.088Z,95500.56
2023-04-13T16:37:06.446Z,95504.04
2023-04-13T16:39:34.419Z,95508.59
2023-04-13T16:42:02.486Z,95513.59
2023-04-13T16:44:30.668Z,95520.09
2023-04-13T16:46:58.846Z,95523.53
2023-04-13T16:49:26.915Z,95520.30
2023-04-13T16:51:54.991Z,95521.38
2023-04-13T16:54:23.051Z,95519.25
2023-04-13T16:56:52.023Z,95523.55
2023-04-13T16:59:21.076Z,95527.23
2023-04-13T17:01:49.282Z,95527.91
2023-04-13T17:04:17.455Z,95528.11
2023-04-13T17:06:47.383Z,95525.04
2023-04-13T17:09:15.471Z,95531.06
2023-04-13T17:11:43.549Z,95537.98
2023-04-13T17:14:11.622Z,95542.23
2023-04-13T17:16:39.556Z,95540.20
2023-04-13T17:19:07.765Z,95542.27
2023-04-13T17:21:35.746Z,95543.21
2023-04-13T17:24:04.674Z,95545.45
2023-04-13T17:26:32.696Z,95539.46
2023-04-13T17:29:02.155Z,95549.38
2023-04-13T17:31:30.620Z,95547.73
2023-04-13T17:33:58.759Z,95548.19
2023-04-13T17:36:27.539Z,95549.77
2023-04-13T17:38:55.618Z,95552.25
2023-04-13T17:41:23.686Z,95554.23
2023-04-13T17:43:51.765Z,95557.63
2023-04-13T17:46:19.905Z,95558.96
2023-04-13T17:48:48.326Z,95556.96
2023-04-13T17:51:16.276Z,95557.60
2023-04-13T17:53:44.462Z,95560.30
2023-04-13T17:56:19.090Z,95561.84
2023-04-13T17:58:47.353Z,95569.01
2023-04-13T18:01:15.570Z,95568.33
2023-04-13T18:03:43.995Z,95571.83
2023-04-13T18:06:12.404Z,95579.52
2023-04-13T18:08:40.667Z,95583.32
2023-04-13T18:11:08.740Z,95583.91
2023-04-13T18:13:37.131Z,95585.27
2023-04-13T18:16:05.705Z,95589.19
2023-04-13T18:18:34.013Z,95593.21
2023-04-13T18:21:04.917Z,95588.36
2023-04-13T18:23:33.512Z,95585.51
2023-04-13T18:26:01.777Z,95583.86
2023-04-13T18:28:29.963Z,95583.13
2023-04-13T18:31:00.843Z,95580.19
2023-04-13T18:33:29.580Z,95580.14
2023-04-13T18:35:57.649Z,95584.68
2023-04-13T18:38:26.035Z,95581.96
2023-04-13T18:40:53.912Z,95586.17
2023-04-13T18:43:23.204Z,95584.90
2023-04-13T18:45:52.510Z,95584.77
2023-04-13T18:48:20.484Z,95587.98
2023-04-13T18:50:48.664Z,95589.06
2023-04-13T18:53:16.921Z,95586.56
2023-04-13T18:55:50.133Z,95581.91
2023-04-13T18:58:19.835Z,95584.45
2023-04-13T19:00:48.316Z,95579.96
2023-04-13T19:03:16.526Z,95580.90
2023-04-13T19:05:44.961Z,95581.00
2023-04-13T19:08:13.598Z,95576.83
2023-04-13T19:10:41.933Z,95579.14
2023-04-13T19:13:10.310Z,95582.20
2023-04-13T19:15:39.290Z,95584.58
2023-04-13T19:18:07.880Z,95588.16
2023-04-13T19:20:35.946Z,95589.91
2023-04-13T19:23:04.016Z,95589.33
2023-04-13T19:25:32.001Z,95590.85
2023-04-13T19:28:00.698Z,95592.23
2023-04-13T19:30:28.874Z,95595.67
2023-04-13T19:32:59.923Z,95597.36
2023-04-13T19:35:28.884Z,95595.00
2023-04-13T19:37:57.060Z,95595.62
2023-04-13T19:40:27.306Z,95599.73
2023-04-13T19:42:55.773Z,95593.85
2023-04-13T19:45:23.738Z,95587.75
2023-04-13T19:47:52.337Z,95578.43
2023-04-13T19:50:20.571Z,95578.35
2023-04-13T19:52:50.331Z,95578.27
2023-04-13T19:55:18.395Z,95576.44
2023-04-13T19:57:46.580Z,95574.22
2023-04-13T20:00:17.917Z,95579.13
2023-04-13T20:02:50.313Z,95588.21
2023-04-13T20:05:19.306Z,95587.61
2023-04-13T20:07:47.650Z,95587.98
2023-04-13T20:10:15.620Z,95590.43
2023-04-13T20:12:43.755Z,95592.95
2023-04-13T20:15:12.061Z,95591.11
2023-04-13T20:17:40.109Z,95590.05
2023-04-13T20:20:10.822Z,95586.45
2023-04-13T20:22:38.950Z,95577.98
2023-04-13T20:25:07.524Z,95574.60
2023-04-13T20:27:37.957Z,95576.73
2023-04-13T20:30:06.852Z,95576.05
2023-04-13T20:32:34.770Z,95575.05
2023-04-13T20:35:03.180Z,95571.84
2023-04-13T20:37:31.159Z,95565.50
2023-04-13T20:39:59.222Z,95566.03
2023-04-13T20:42:27.197Z,95562.28
2023-04-13T20:44:57.652Z,95561.45
2023-04-13T20:47:31.459Z,95560.67
2023-04-13T20:50:00.248Z,95562.58
2023-04-13T20:52:30.173Z,95563.02
2023-04-13T20:54:59.150Z,95564.25
2023-04-13T20:57:27.595Z,95558.90
2023-04-13T20:59:58.343Z,95556.38
2023-04-13T21:02:26.811Z,95552.55
2023-04-13T21:04:56.669Z,95555.23
2023-04-13T21:07:24.718Z,95563.23
2023-04-13T21:09:52.995Z,95568.52
2023-04-13T21:12:21.160Z,95570.73
2023-04-13T21:14:49.378Z,95568.63
2023-04-13T21:17:17.526Z,95567.33
2023-04-13T21:19:45.899Z,95567.93
2023-04-13T21:22:15.923Z,95566.32
2023-04-13T21:24:45.307Z,95563.71
2023-04-13T21:27:14.208Z,95554.77
2023-04-13T21:29:42.173Z,95556.30
2023-04-13T21:32:10.845Z,95556.75
2023-04-13T21:34:38.963Z,95555.75
2023-04-13T21:37:07.295Z,95559.41
2023-04-13T21:39:35.478Z,95556.36
2023-04-13T21:42:05.188Z,95554.45
2023-04-13T21:44:33.087Z,95554.45
2023-04-13T21:47:01.326Z,95554.83
2023-04-13T21:49:29.490Z,95557.34
2023-04-13T21:51:57.471Z,95560.85
2023-04-13T21:54:25.552Z,95560.99
2023-04-13T21:56:53.619Z,95558.70
2023-04-13T21:59:21.799Z,95557.40
2023-04-13T22:01:50.021Z,95556.71
2023-04-13T22:04:18.353Z,95552.89
2023-04-13T22:06:46.344Z,95551.66
2023-04-13T22:09:14.253Z,95552.65
2023-04-13T22:11:42.474Z,95550.35
2023-04-13T22:14:10.549Z,95545.69
2023-04-13T22:16:38.611Z,95544.31
2023-04-13T22:19:06.583Z,95545.98
2023-04-13T22:21:36.322Z,95544.60
2023-04-13T22:24:04.891Z,95545.98
2023-04-13T22:26:33.046Z,95543.30
2023-04-13T22:29:01.407Z,95543.30
2023-04-13T22:31:29.695Z,95538.02
2023-04-13T22:33:57.680Z,95530.67
2023-04-13T22:36:27.275Z,95535.56
2023-04-13T22:38:55.554Z,95534.88
2023-04-13T22:41:23.630Z,95533.04
2023-04-13T22:43:54.586Z,95529.67
2023-04-13T22:46:23.966Z,95532.64
2023-04-13T22:48:52.826Z,95529.28
2023-04-13T22:51:21.134Z,95527.07
2023-04-13T22:53:49.502Z,95517.45
2023-04-13T22:56:17.410Z,95511.11
2023-04-13T22:58:45.455Z,95514.39
2023-04-13T23:01:13.501Z,95510.42
2023-04-13T23:03:42.075Z,95510.72
2023-04-13T23:06:10.478Z,95515.67
2023-04-13T23:08:38.555Z,95510.71
2023-04-13T23:11:08.875Z,95510.72
2023-04-13T23:13:36.965Z,95508.73
2023-04-13T23:16:06.051Z,95509.18
2023-04-13T23:18:34.329Z,95509.27
2023-04-13T23:21:09.864Z,95507.42
2023-04-13T23:23:38.773Z,95518.34
2023-04-13T23:26:06.844Z,95519.40
2023-04-13T23:28:35.110Z,95518.48
2023-04-13T23:31:04.723Z,95516.27
2023-04-13T23:33:33.925Z,95510.55
2023-04-13T23:36:02.197Z,95508.70
2023-04-13T23:38:30.157Z,95506.48
2023-04-13T23:40:58.559Z,95499.15
2023-04-13T23:43:26.946Z,95501.27
2023-04-13T23:45:54.863Z,95498.81
2023-04-13T23:48:23.171Z,95507.52
2023-04-13T23:50:51.247Z,95508.66
2023-04-13T23:53:20.129Z,95508.58
2023-04-13T23:55:48.429Z,95509.86
2023-04-13T23:58:16.468Z,95505.58
